Flight Track Log - Related Links

Times and Time Zones

All times are in EDT time to prevent confusion due to time zone crossing. See the AWE9325 flight status page for this flight to view local times or setup timezone preferences in your user account.

Time Position Orientation Groundspeed Altitude Reporting Facility
EDT Latitude Longitude Course Direction KTS MPH feet Rate Location/Type
Tue 07:33:00 PM 33.9181 -117.9644 94° East  Level Estimated
Tue 07:34:00 PM 33.9117 -117.8535 94° East  Level Estimated
Tue 07:35:00 PM 33.9052 -117.7427 94° East  Level Estimated
Tue 07:36:00 PM 33.8987 -117.6318 94° East  Level Estimated
Tue 07:37:00 PM 33.8920 -117.5210 94° East  Level Estimated
Tue 07:38:00 PM 33.8853 -117.4102 94° East  Level Estimated
Tue 07:39:00 PM 33.8784 -117.2994 94° East  Level Estimated
Tue 07:40:00 PM 33.8715 -117.1887 94° East  Level Estimated
Tue 07:41:00 PM 33.8644 -117.0779 94° East  Level Estimated
Tue 07:42:00 PM 33.8573 -116.9672 94° East  Level Estimated
Tue 07:43:00 PM 33.8500 -116.8565 94° East  Level Estimated
Tue 07:44:00 PM 33.8427 -116.7458 95° East  Level Estimated
Tue 07:45:00 PM 33.8352 -116.6351 95° East  Level Estimated
Tue 07:46:00 PM 33.8277 -116.5244 95° East  Level Estimated
Tue 07:47:00 PM 33.8200 -116.4138 95° East  Level Estimated
Tue 07:48:00 PM 33.8123 -116.3032 95° East  Level Estimated
Tue 07:49:00 PM 33.8045 -116.1926 95° East  Level Estimated
Tue 07:50:00 PM 33.7965 -116.0820 95° East  Level Estimated
Tue 07:51:00 PM 33.7885 -115.9714 95° East  Level Estimated
Tue 07:52:00 PM 33.7803 -115.8609 95° East  Level Estimated
Tue 07:53:00 PM 33.7721 -115.7504 95° East  Level Estimated
Tue 07:54:00 PM 33.7638 -115.6399 95° East  Level Estimated
Tue 07:55:00 PM 33.7553 -115.5294 95° East  Level Estimated
Tue 07:56:00 PM 33.7468 -115.4190 95° East  Level Estimated
Tue 07:57:00 PM 33.7382 -115.3085 95° East  Level Estimated
Tue 07:58:00 PM 33.7294 -115.1981 95° East  Level Estimated
Tue 07:59:00 PM 33.7206 -115.0877 95° East  Level Estimated
Tue 08:00:00 PM 33.7117 -114.9774 96° East  Level Estimated
Tue 08:01:00 PM 33.7027 -114.8670 96° East  Level Estimated
Tue 08:02:00 PM 33.6935 -114.7567 96° East  Level Estimated
Tue 08:03:00 PM 33.6843 -114.6464 96° East  Level Estimated
Tue 08:04:00 PM 33.6750 -114.5362 96° East  Level Estimated
Tue 08:05:00 PM 33.6656 -114.4259 96° East  Level Estimated
Tue 08:06:00 PM 33.6561 -114.3157 96° East  Level Estimated
Tue 08:07:00 PM 33.6465 -114.2055 96° East  Level Estimated
Tue 08:08:00 PM 33.6368 -114.0954 96° East  Level Estimated
Tue 08:09:00 PM 33.6269 -113.9852 96° East  Level Estimated
Tue 08:10:00 PM 33.6171 -113.8751 96° East  Level Estimated
Tue 08:11:00 PM 33.6071 -113.7650 96° East  Level Estimated
Tue 08:12:00 PM 33.5970 -113.6549 96° East  Level Estimated
Tue 08:13:00 PM 33.5868 -113.5449 96° East  Level Estimated
Tue 08:14:00 PM 33.5763 -113.4329 96° East  Level Estimated
Tue 08:15:00 PM 33.5657 -113.3210 96° East  Level Estimated
Tue 08:16:00 PM 33.5550 -113.2091 97° East  Level Estimated
Tue 08:17:00 PM 33.5442 -113.0973 97° East  Level Estimated
Tue 08:18:00 PM 33.5334 -112.9854 97° East  Level Estimated
Tue 08:19:00 PM 33.5224 -112.8736 97° East  Level Estimated
Tue 08:20:00 PM 33.5113 -112.7618 97° East  Level Estimated
Tue 08:21:00 PM 33.5001 -112.6501 97° East  Level Estimated
Tue 08:22:00 PM 33.4888 -112.5384 97° East  Level Estimated
Tue 08:23:00 PM 33.4775 -112.4267 97° East  Level Estimated
Tue 08:24:00 PM 33.4660 -112.3150 97° East  Level Estimated
Tue 08:25:00 PM 33.4544 -112.2034 97° East  Level Estimated
Tue 08:26:00 PM 33.4427 -112.0918 97° East  Level Estimated
Tue 08:27:00 PM 33.4343 -112.0116 97° East  Level Estimated
Tue 08:28:00 PM 33.4343 -112.0116 231° Southwest  Level Estimated
Tue 08:29:00 PM 33.4343 -112.0116 231° Southwest  Level Estimated
Tue 08:30:00 PM 33.4343 -112.0116 231° Southwest  Level Estimated
Tue 08:31:00 PM 33.4343 -112.0116 231° Southwest  Level Estimated
Tue 08:32:00 PM 33.4343 -112.0116 231° Southwest  Level Estimated
Tue 08:33:00 PM 33.4343 -112.0116 231° Southwest  Level Estimated
Tue 08:34:00 PM 33.4343 -112.0116 231° Southwest  Level Estimated
Tue 08:35:00 PM 33.4343 -112.0116 231° Southwest  Level Estimated
Tue 08:36:00 PM 33.4343 -112.0116 231° Southwest  Level Estimated
Tue 08:37:00 PM 33.4343 -112.0116 231° Southwest  Level Estimated
Tue 08:38:00 PM 33.4343 -112.0116 231° Southwest  Level Estimated

Login

Don't have an account? Register now (free) for customized features, flight alerts, and more!